sensor_id;sensor_type;location;lat;lon;timestamp;pressure;altitude;pressure_sealevel;temperature;humidity
23361;BME280;11852;50.082;18.554;2023-02-23T00:01:12;98600.5;;;3.13;74.88
23361;BME280;11852;50.082;18.554;2023-02-23T00:02:26;98600.5;;;3.01;75.44
23361;BME280;11852;50.082;18.554;2023-02-23T00:03:33;98600.0;;;3.07;75.32
23361;BME280;11852;50.082;18.554;2023-02-23T00:04:40;98606.0;;;3.06;75.19
23361;BME280;11852;50.082;18.554;2023-02-23T00:05:47;98603.5;;;3.04;75.24
23361;BME280;11852;50.082;18.554;2023-02-23T00:06:56;98604.0;;;3.06;75.19
23361;BME280;11852;50.082;18.554;2023-02-23T00:08:03;98604.51;;;2.96;75.45
23361;BME280;11852;50.082;18.554;2023-02-23T00:09:13;98601.5;;;2.91;75.83
23361;BME280;11852;50.082;18.554;2023-02-23T00:10:20;98602.5;;;2.94;75.77
23361;BME280;11852;50.082;18.554;2023-02-23T00:11:28;98602.5;;;2.91;76.03
23361;BME280;11852;50.082;18.554;2023-02-23T00:12:35;98602.5;;;2.88;76.23
23361;BME280;11852;50.082;18.554;2023-02-23T00:13:46;98603.0;;;2.94;76.05
23361;BME280;11852;50.082;18.554;2023-02-23T00:14:53;98602.5;;;2.82;76.25
23361;BME280;11852;50.082;18.554;2023-02-23T00:16:04;98603.0;;;2.88;75.93
23361;BME280;11852;50.082;18.554;2023-02-23T00:17:10;98602.5;;;2.82;76.19
23361;BME280;11852;50.082;18.554;2023-02-23T00:18:18;98602.0;;;2.84;76.29
23361;BME280;11852;50.082;18.554;2023-02-23T00:19:25;98603.5;;;2.88;76.32
23361;BME280;11852;50.082;18.554;2023-02-23T00:20:32;98602.0;;;2.88;76.4
23361;BME280;11852;50.082;18.554;2023-02-23T00:21:40;98601.0;;;2.84;76.43
23361;BME280;11852;50.082;18.554;2023-02-23T00:22:46;98598.5;;;2.88;76.22
23361;BME280;11852;50.082;18.554;2023-02-23T00:23:54;98599.0;;;2.89;76.43
23361;BME280;11852;50.082;18.554;2023-02-23T00:25:00;98597.0;;;2.74;76.83
23361;BME280;11852;50.082;18.554;2023-02-23T00:26:07;98598.5;;;2.77;76.76
23361;BME280;11852;50.082;18.554;2023-02-23T00:27:14;98598.0;;;2.81;76.79
23361;BME280;11852;50.082;18.554;2023-02-23T00:28:31;98599.0;;;2.85;76.76
23361;BME280;11852;50.082;18.554;2023-02-23T00:29:41;98598.0;;;2.87;76.66
23361;BME280;11852;50.082;18.554;2023-02-23T00:30:48;98596.0;;;2.78;76.85
23361;BME280;11852;50.082;18.554;2023-02-23T00:31:59;98595.5;;;2.73;76.97
23361;BME280;11852;50.082;18.554;2023-02-23T00:33:19;98594.0;;;2.68;77.2
23361;BME280;11852;50.082;18.554;2023-02-23T00:34:26;98594.99;;;2.59;77.49
23361;BME280;11852;50.082;18.554;2023-02-23T00:35:33;98596.5;;;2.57;77.93
23361;BME280;11852;50.082;18.554;2023-02-23T00:36:41;98597.0;;;2.63;77.94
23361;BME280;11852;50.082;18.554;2023-02-23T00:37:48;98598.5;;;2.6;78.08
23361;BME280;11852;50.082;18.554;2023-02-23T00:38:55;98594.5;;;2.63;77.95
23361;BME280;11852;50.082;18.554;2023-02-23T00:40:03;98597.5;;;2.63;78.26
23361;BME280;11852;50.082;18.554;2023-02-23T00:41:12;98595.0;;;2.59;78.3
23361;BME280;11852;50.082;18.554;2023-02-23T00:42:20;98596.0;;;2.55;78.51
23361;BME280;11852;50.082;18.554;2023-02-23T00:43:27;98595.49;;;2.57;78.58
23361;BME280;11852;50.082;18.554;2023-02-23T00:45:05;98595.49;;;2.57;78.77
23361;BME280;11852;50.082;18.554;2023-02-23T00:46:13;98594.5;;;2.64;78.5
23361;BME280;11852;50.082;18.554;2023-02-23T00:47:19;98593.5;;;2.53;78.74
23361;BME280;11852;50.082;18.554;2023-02-23T00:48:26;98593.5;;;2.6;78.51
23361;BME280;11852;50.082;18.554;2023-02-23T00:49:35;98591.5;;;2.48;78.81
23361;BME280;11852;50.082;18.554;2023-02-23T00:50:43;98591.0;;;2.48;78.94
23361;BME280;11852;50.082;18.554;2023-02-23T00:51:50;98591.5;;;2.47;79.06
23361;BME280;11852;50.082;18.554;2023-02-23T00:53:01;98592.01;;;2.47;79.01
23361;BME280;11852;50.082;18.554;2023-02-23T00:54:10;98592.51;;;2.49;78.88
23361;BME280;11852;50.082;18.554;2023-02-23T00:55:22;98592.01;;;2.47;78.9
23361;BME280;11852;50.082;18.554;2023-02-23T00:56:29;98591.5;;;2.47;79.08
23361;BME280;11852;50.082;18.554;2023-02-23T00:57:36;98592.01;;;2.43;79.3
23361;BME280;11852;50.082;18.554;2023-02-23T00:58:43;98591.0;;;2.45;79.35
23361;BME280;11852;50.082;18.554;2023-02-23T00:59:50;98591.5;;;2.47;79.38
23361;BME280;11852;50.082;18.554;2023-02-23T01:01:00;98593.5;;;2.42;79.57
23361;BME280;11852;50.082;18.554;2023-02-23T01:02:13;98594.49;;;2.38;79.71
23361;BME280;11852;50.082;18.554;2023-02-23T01:03:20;98596.5;;;2.28;80.13
23361;BME280;11852;50.082;18.554;2023-02-23T01:04:27;98596.5;;;2.25;80.27
23361;BME280;11852;50.082;18.554;2023-02-23T01:05:34;98592.0;;;2.22;80.43
23361;BME280;11852;50.082;18.554;2023-02-23T01:06:41;98592.5;;;2.34;80.18
23361;BME280;11852;50.082;18.554;2023-02-23T01:07:48;98592.5;;;2.29;80.47
23361;BME280;11852;50.082;18.554;2023-02-23T01:08:55;98590.5;;;2.26;80.42
23361;BME280;11852;50.082;18.554;2023-02-23T01:10:05;98592.01;;;2.32;80.46
23361;BME280;11852;50.082;18.554;2023-02-23T01:11:15;98591.0;;;2.24;80.72
23361;BME280;11852;50.082;18.554;2023-02-23T01:12:22;98592.01;;;2.23;80.66
23361;BME280;11852;50.082;18.554;2023-02-23T01:13:28;98588.5;;;2.24;80.65
23361;BME280;11852;50.082;18.554;2023-02-23T01:14:47;98589.5;;;2.32;80.53
23361;BME280;11852;50.082;18.554;2023-02-23T01:15:57;98588.0;;;2.28;80.68
23361;BME280;11852;50.082;18.554;2023-02-23T01:17:04;98587.5;;;2.28;80.82
23361;BME280;11852;50.082;18.554;2023-02-23T01:18:11;98588.0;;;2.24;80.99
23361;BME280;11852;50.082;18.554;2023-02-23T01:19:20;98587.0;;;2.34;80.79
23361;BME280;11852;50.082;18.554;2023-02-23T01:20:30;98588.0;;;2.32;80.88
23361;BME280;11852;50.082;18.554;2023-02-23T01:21:40;98585.5;;;2.34;80.82
23361;BME280;11852;50.082;18.554;2023-02-23T01:22:47;98583.5;;;2.28;80.9
23361;BME280;11852;50.082;18.554;2023-02-23T01:23:53;98580.5;;;2.35;80.89
23361;BME280;11852;50.082;18.554;2023-02-23T01:25:00;98579.51;;;2.28;81.09
23361;BME280;11852;50.082;18.554;2023-02-23T01:26:16;98582.49;;;2.24;81.26
23361;BME280;11852;50.082;18.554;2023-02-23T01:27:22;98582.5;;;2.14;81.55
23361;BME280;11852;50.082;18.554;2023-02-23T01:28:29;98581.0;;;2.1;81.63
23361;BME280;11852;50.082;18.554;2023-02-23T01:29:36;98584.5;;;2.2;81.39
23361;BME280;11852;50.082;18.554;2023-02-23T01:30:43;98582.0;;;2.19;81.35
23361;BME280;11852;50.082;18.554;2023-02-23T01:31:54;98579.0;;;2.27;81.19
23361;BME280;11852;50.082;18.554;2023-02-23T01:33:01;98581.0;;;2.33;81.29
23361;BME280;11852;50.082;18.554;2023-02-23T01:34:09;98579.0;;;2.3;81.33
23361;BME280;11852;50.082;18.554;2023-02-23T01:35:15;98578.5;;;2.16;81.65
23361;BME280;11852;50.082;18.554;2023-02-23T01:37:35;98576.5;;;2.13;81.79
23361;BME280;11852;50.082;18.554;2023-02-23T01:38:41;98574.5;;;2.18;81.43
23361;BME280;11852;50.082;18.554;2023-02-23T01:39:48;98577.5;;;2.12;81.63
23361;BME280;11852;50.082;18.554;2023-02-23T01:40:58;98577.0;;;2.08;81.85
23361;BME280;11852;50.082;18.554;2023-02-23T01:42:02;98574.0;;;2.18;81.68
23361;BME280;11852;50.082;18.554;2023-02-23T01:43:13;98576.0;;;2.13;82.07
23361;BME280;11852;50.082;18.554;2023-02-23T01:45:33;98569.0;;;2.1;82.18
23361;BME280;11852;50.082;18.554;2023-02-23T01:46:44;98573.0;;;2.02;82.34
23361;BME280;11852;50.082;18.554;2023-02-23T01:47:51;98569.0;;;2.09;82.14
23361;BME280;11852;50.082;18.554;2023-02-23T01:49:03;98570.0;;;2.03;82.35
23361;BME280;11852;50.082;18.554;2023-02-23T01:50:10;98566.5;;;2.01;82.48
23361;BME280;11852;50.082;18.554;2023-02-23T01:51:29;98563.5;;;2.1;82.53
23361;BME280;11852;50.082;18.554;2023-02-23T01:52:37;98562.5;;;2.0;82.57
23361;BME280;11852;50.082;18.554;2023-02-23T01:53:47;98564.0;;;2.01;82.35
23361;BME280;11852;50.082;18.554;2023-02-23T01:54:51;98557.99;;;2.05;82.21
23361;BME280;11852;50.082;18.554;2023-02-23T01:56:08;98558.5;;;2.04;82.14
23361;BME280;11852;50.082;18.554;2023-02-23T01:57:14;98559.0;;;1.87;82.67
23361;BME280;11852;50.082;18.554;2023-02-23T01:58:22;98559.5;;;1.83;82.9
23361;BME280;11852;50.082;18.554;2023-02-23T01:59:38;98554.5;;;1.69;83.21
23361;BME280;11852;50.082;18.554;2023-02-23T02:00:46;98553.0;;;1.78;82.94
23361;BME280;11852;50.082;18.554;2023-02-23T02:02:00;98555.0;;;1.78;83.04
23361;BME280;11852;50.082;18.554;2023-02-23T02:03:07;98554.0;;;1.71;83.49
23361;BME280;11852;50.082;18.554;2023-02-23T02:04:14;98556.01;;;1.76;83.36
23361;BME280;11852;50.082;18.554;2023-02-23T02:05:21;98555.51;;;1.75;83.29
23361;BME280;11852;50.082;18.554;2023-02-23T02:06:28;98553.0;;;1.8;83.24
23361;BME280;11852;50.082;18.554;2023-02-23T02:07:37;98551.5;;;1.77;83.44
23361;BME280;11852;50.082;18.554;2023-02-23T02:08:45;98552.5;;;1.84;83.28
23361;BME280;11852;50.082;18.554;2023-02-23T02:10:10;98553.5;;;1.8;83.47
23361;BME280;11852;50.082;18.554;2023-02-23T02:11:22;98554.0;;;1.75;83.57
23361;BME280;11852;50.082;18.554;2023-02-23T02:12:29;98550.0;;;1.82;83.35
23361;BME280;11852;50.082;18.554;2023-02-23T02:13:36;98549.5;;;1.75;83.49
23361;BME280;11852;50.082;18.554;2023-02-23T02:14:43;98549.0;;;1.81;83.36
23361;BME280;11852;50.082;18.554;2023-02-23T02:27:42;98545.49;;;1.86;83.06
23361;BME280;11852;50.082;18.554;2023-02-23T02:32:59;98546.0;;;1.85;83.22
23361;BME280;11852;50.082;18.554;2023-02-23T02:33:59;98547.0;;;1.79;83.24
23361;BME280;11852;50.082;18.554;2023-02-23T02:39:19;98544.5;;;1.75;83.57
23361;BME280;11852;50.082;18.554;2023-02-23T02:41:35;98544.5;;;1.8;83.42
23361;BME280;11852;50.082;18.554;2023-02-23T02:46:39;98546.5;;;1.85;83.0
23361;BME280;11852;50.082;18.554;2023-02-23T02:47:53;98547.0;;;1.82;82.93
23361;BME280;11852;50.082;18.554;2023-02-23T02:50:24;98546.0;;;1.86;82.99
23361;BME280;11852;50.082;18.554;2023-02-23T02:52:55;98542.5;;;1.77;83.01
23361;BME280;11852;50.082;18.554;2023-02-23T02:54:09;98544.99;;;1.78;83.04
23361;BME280;11852;50.082;18.554;2023-02-23T02:55:27;98542.01;;;1.75;83.09
23361;BME280;11852;50.082;18.554;2023-02-23T02:56:33;98542.51;;;1.7;83.15
23361;BME280;11852;50.082;18.554;2023-02-23T02:57:42;98540.0;;;1.54;83.67
23361;BME280;11852;50.082;18.554;2023-02-23T02:58:52;98539.5;;;1.59;83.38
23361;BME280;11852;50.082;18.554;2023-02-23T03:00:06;98540.5;;;1.6;83.42
23361;BME280;11852;50.082;18.554;2023-02-23T03:01:20;98539.0;;;1.6;83.36
23361;BME280;11852;50.082;18.554;2023-02-23T03:02:36;98540.0;;;1.63;83.19
23361;BME280;11852;50.082;18.554;2023-02-23T03:03:47;98539.0;;;1.6;83.37
23361;BME280;11852;50.082;18.554;2023-02-23T03:05:00;98539.5;;;1.63;83.38
23361;BME280;11852;50.082;18.554;2023-02-23T03:06:12;98540.5;;;1.63;83.53
23361;BME280;11852;50.082;18.554;2023-02-23T03:08:59;98542.0;;;1.68;83.43
23361;BME280;11852;50.082;18.554;2023-02-23T03:11:39;98542.01;;;1.76;83.36
23361;BME280;11852;50.082;18.554;2023-02-23T03:15:58;98539.5;;;1.72;83.12
23361;BME280;11852;50.082;18.554;2023-02-23T03:20:54;98538.0;;;1.64;83.1
23361;BME280;11852;50.082;18.554;2023-02-23T03:24:53;98535.0;;;1.63;83.36
23361;BME280;11852;50.082;18.554;2023-02-23T03:30:07;98535.0;;;1.61;83.32
23361;BME280;11852;50.082;18.554;2023-02-23T03:35:24;98535.0;;;1.53;83.25
23361;BME280;11852;50.082;18.554;2023-02-23T03:36:36;98534.0;;;1.55;83.27
23361;BME280;11852;50.082;18.554;2023-02-23T03:37:52;98537.0;;;1.44;83.4
23361;BME280;11852;50.082;18.554;2023-02-23T03:40:31;98533.0;;;1.44;83.55
23361;BME280;11852;50.082;18.554;2023-02-23T03:41:46;98531.0;;;1.41;83.62
23361;BME280;11852;50.082;18.554;2023-02-23T03:42:59;98529.0;;;1.38;83.56
23361;BME280;11852;50.082;18.554;2023-02-23T03:44:14;98530.0;;;1.35;83.55
23361;BME280;11852;50.082;18.554;2023-02-23T03:45:25;98530.5;;;1.28;83.68
23361;BME280;11852;50.082;18.554;2023-02-23T03:46:37;98531.0;;;1.35;83.49
23361;BME280;11852;50.082;18.554;2023-02-23T03:47:50;98530.0;;;1.26;83.74
23361;BME280;11852;50.082;18.554;2023-02-23T03:49:06;98534.0;;;1.19;83.97
23361;BME280;11852;50.082;18.554;2023-02-23T03:50:28;98533.5;;;1.25;83.83
23361;BME280;11852;50.082;18.554;2023-02-23T03:51:34;98537.5;;;1.23;84.04
23361;BME280;11852;50.082;18.554;2023-02-23T03:52:49;98538.0;;;1.28;84.07
23361;BME280;11852;50.082;18.554;2023-02-23T03:54:07;98536.5;;;1.37;84.01
23361;BME280;11852;50.082;18.554;2023-02-23T03:55:19;98534.0;;;1.36;83.99
23361;BME280;11852;50.082;18.554;2023-02-23T03:56:30;98534.0;;;1.2;84.36
23361;BME280;11852;50.082;18.554;2023-02-23T03:57:42;98535.0;;;1.14;84.32
23361;BME280;11852;50.082;18.554;2023-02-23T03:58:56;98537.5;;;1.16;84.38
23361;BME280;11852;50.082;18.554;2023-02-23T04:00:08;98538.0;;;1.19;84.08
23361;BME280;11852;50.082;18.554;2023-02-23T04:01:22;98534.5;;;1.26;83.9
23361;BME280;11852;50.082;18.554;2023-02-23T04:02:35;98538.0;;;1.25;83.97
23361;BME280;11852;50.082;18.554;2023-02-23T04:03:47;98538.0;;;1.24;84.0
23361;BME280;11852;50.082;18.554;2023-02-23T04:05:01;98537.0;;;1.3;83.96
23361;BME280;11852;50.082;18.554;2023-02-23T04:06:20;98537.0;;;1.26;84.13
23361;BME280;11852;50.082;18.554;2023-02-23T04:07:32;98536.5;;;1.27;84.04
23361;BME280;11852;50.082;18.554;2023-02-23T04:08:45;98539.0;;;1.19;84.06
23361;BME280;11852;50.082;18.554;2023-02-23T04:09:58;98536.0;;;1.2;84.06
23361;BME280;11852;50.082;18.554;2023-02-23T04:11:18;98535.0;;;1.25;84.0
23361;BME280;11852;50.082;18.554;2023-02-23T04:13:39;98533.0;;;1.16;84.16
23361;BME280;11852;50.082;18.554;2023-02-23T04:14:56;98532.0;;;1.12;84.35
23361;BME280;11852;50.082;18.554;2023-02-23T04:16:03;98530.5;;;1.13;84.23
23361;BME280;11852;50.082;18.554;2023-02-23T04:17:12;98528.0;;;1.17;84.23
23361;BME280;11852;50.082;18.554;2023-02-23T04:18:26;98530.01;;;1.19;84.07
23361;BME280;11852;50.082;18.554;2023-02-23T04:19:33;98526.5;;;1.17;84.14
23361;BME280;11852;50.082;18.554;2023-02-23T04:20:40;98526.5;;;1.2;84.07
23361;BME280;11852;50.082;18.554;2023-02-23T04:21:48;98528.0;;;1.13;84.25
23361;BME280;11852;50.082;18.554;2023-02-23T04:22:56;98528.0;;;1.1;84.23
23361;BME280;11852;50.082;18.554;2023-02-23T04:24:08;98528.5;;;1.07;84.31
23361;BME280;11852;50.082;18.554;2023-02-23T04:25:28;98528.5;;;1.04;84.43
23361;BME280;11852;50.082;18.554;2023-02-23T04:26:33;98527.5;;;1.1;84.38
23361;BME280;11852;50.082;18.554;2023-02-23T04:27:40;98528.5;;;1.13;84.36
23361;BME280;11852;50.082;18.554;2023-02-23T04:28:47;98530.0;;;1.13;84.41
23361;BME280;11852;50.082;18.554;2023-02-23T04:29:58;98529.0;;;1.04;84.58
23361;BME280;11852;50.082;18.554;2023-02-23T04:31:05;98528.0;;;1.02;84.54
23361;BME280;11852;50.082;18.554;2023-02-23T04:32:13;98530.0;;;1.06;84.43
23361;BME280;11852;50.082;18.554;2023-02-23T04:33:19;98532.49;;;1.05;84.48
23361;BME280;11852;50.082;18.554;2023-02-23T04:34:26;98532.5;;;1.05;84.4
23361;BME280;11852;50.082;18.554;2023-02-23T04:35:33;98531.5;;;0.95;84.49
23361;BME280;11852;50.082;18.554;2023-02-23T04:36:43;98530.01;;;1.01;84.29
23361;BME280;11852;50.082;18.554;2023-02-23T04:37:51;98531.5;;;0.88;84.63
23361;BME280;11852;50.082;18.554;2023-02-23T04:38:58;98527.0;;;0.79;84.94
23361;BME280;11852;50.082;18.554;2023-02-23T04:40:08;98525.0;;;0.81;84.85
23361;BME280;11852;50.082;18.554;2023-02-23T04:41:17;98526.5;;;0.75;84.99
23361;BME280;11852;50.082;18.554;2023-02-23T04:42:24;98526.5;;;0.85;84.79
23361;BME280;11852;50.082;18.554;2023-02-23T04:43:32;98527.0;;;0.8;84.91
23361;BME280;11852;50.082;18.554;2023-02-23T04:44:41;98524.0;;;0.84;84.71
23361;BME280;11852;50.082;18.554;2023-02-23T04:45:49;98525.5;;;0.78;84.99
23361;BME280;11852;50.082;18.554;2023-02-23T04:46:56;98527.0;;;0.85;84.79
23361;BME280;11852;50.082;18.554;2023-02-23T04:48:03;98525.0;;;0.79;85.05
23361;BME280;11852;50.082;18.554;2023-02-23T04:49:10;98527.0;;;0.83;84.85
23361;BME280;11852;50.082;18.554;2023-02-23T04:50:17;98524.5;;;0.81;84.88
23361;BME280;11852;50.082;18.554;2023-02-23T04:51:37;98525.0;;;0.83;84.86
23361;BME280;11852;50.082;18.554;2023-02-23T04:52:44;98522.5;;;0.89;84.65
23361;BME280;11852;50.082;18.554;2023-02-23T04:53:54;98526.0;;;0.92;84.65
23361;BME280;11852;50.082;18.554;2023-02-23T04:55:01;98526.0;;;0.94;84.51
23361;BME280;11852;50.082;18.554;2023-02-23T04:56:12;98525.0;;;1.0;84.47
23361;BME280;11852;50.082;18.554;2023-02-23T04:57:21;98524.0;;;0.95;84.57
23361;BME280;11852;50.082;18.554;2023-02-23T04:58:30;98525.0;;;1.0;84.51
23361;BME280;11852;50.082;18.554;2023-02-23T04:59:37;98527.5;;;0.95;84.43
23361;BME280;11852;50.082;18.554;2023-02-23T05:00:44;98528.0;;;0.94;84.39
23361;BME280;11852;50.082;18.554;2023-02-23T05:01:51;98527.0;;;0.92;84.49
23361;BME280;11852;50.082;18.554;2023-02-23T05:02:58;98528.5;;;0.87;84.46
23361;BME280;11852;50.082;18.554;2023-02-23T05:04:09;98529.5;;;0.9;84.45
23361;BME280;11852;50.082;18.554;2023-02-23T05:05:20;98529.51;;;0.91;84.48
23361;BME280;11852;50.082;18.554;2023-02-23T05:06:24;98528.0;;;0.92;84.44
23361;BME280;11852;50.082;18.554;2023-02-23T05:07:30;98529.51;;;0.85;84.53
23361;BME280;11852;50.082;18.554;2023-02-23T05:08:38;98531.0;;;0.81;84.72
23361;BME280;11852;50.082;18.554;2023-02-23T05:09:45;98530.01;;;0.76;84.77
23361;BME280;11852;50.082;18.554;2023-02-23T05:11:10;98530.51;;;0.78;84.74
23361;BME280;11852;50.082;18.554;2023-02-23T05:12:17;98528.0;;;0.79;84.74
23361;BME280;11852;50.082;18.554;2023-02-23T05:13:24;98527.0;;;0.76;84.89
23361;BME280;11852;50.082;18.554;2023-02-23T05:14:35;98530.5;;;0.77;84.82
23361;BME280;11852;50.082;18.554;2023-02-23T05:15:45;98528.5;;;0.72;84.97
23361;BME280;11852;50.082;18.554;2023-02-23T05:16:52;98527.5;;;0.73;84.97
23361;BME280;11852;50.082;18.554;2023-02-23T05:18:00;98527.5;;;0.81;84.79
23361;BME280;11852;50.082;18.554;2023-02-23T05:19:07;98526.5;;;0.85;84.81
23361;BME280;11852;50.082;18.554;2023-02-23T05:20:14;98524.5;;;0.88;84.78
23361;BME280;11852;50.082;18.554;2023-02-23T05:21:21;98527.0;;;0.9;84.69
23361;BME280;11852;50.082;18.554;2023-02-23T05:22:34;98528.5;;;0.84;84.68
23361;BME280;11852;50.082;18.554;2023-02-23T05:23:41;98528.0;;;0.85;84.64
23361;BME280;11852;50.082;18.554;2023-02-23T05:24:49;98530.0;;;0.84;84.68
23361;BME280;11852;50.082;18.554;2023-02-23T05:26:02;98527.5;;;0.91;84.53
23361;BME280;11852;50.082;18.554;2023-02-23T05:27:09;98529.0;;;0.91;84.51
23361;BME280;11852;50.082;18.554;2023-02-23T05:28:16;98530.0;;;0.93;84.54
23361;BME280;11852;50.082;18.554;2023-02-23T05:29:23;98530.51;;;0.9;84.51
23361;BME280;11852;50.082;18.554;2023-02-23T05:30:30;98530.51;;;0.92;84.48
23361;BME280;11852;50.082;18.554;2023-02-23T05:31:42;98529.0;;;0.87;84.49
23361;BME280;11852;50.082;18.554;2023-02-23T05:32:52;98528.0;;;0.85;84.53
23361;BME280;11852;50.082;18.554;2023-02-23T05:33:59;98529.0;;;0.93;84.46
23361;BME280;11852;50.082;18.554;2023-02-23T05:35:06;98529.51;;;0.88;84.44
23361;BME280;11852;50.082;18.554;2023-02-23T05:36:17;98530.5;;;0.88;84.43
23361;BME280;11852;50.082;18.554;2023-02-23T05:37:24;98529.51;;;0.88;84.33
23361;BME280;11852;50.082;18.554;2023-02-23T05:38:31;98530.5;;;0.92;84.34
23361;BME280;11852;50.082;18.554;2023-02-23T05:39:38;98526.5;;;0.89;84.48
23361;BME280;11852;50.082;18.554;2023-02-23T05:40:45;98533.5;;;0.91;84.33
23361;BME280;11852;50.082;18.554;2023-02-23T05:41:54;98535.0;;;0.93;84.33
23361;BME280;11852;50.082;18.554;2023-02-23T05:43:01;98536.0;;;0.86;84.44
23361;BME280;11852;50.082;18.554;2023-02-23T05:44:08;98535.5;;;0.88;84.38
23361;BME280;11852;50.082;18.554;2023-02-23T05:45:18;98539.5;;;0.93;84.29
23361;BME280;11852;50.082;18.554;2023-02-23T05:46:30;98535.0;;;0.95;84.28
23361;BME280;11852;50.082;18.554;2023-02-23T05:47:44;98535.5;;;0.87;84.57
23361;BME280;11852;50.082;18.554;2023-02-23T05:48:55;98536.0;;;0.92;84.23
23361;BME280;11852;50.082;18.554;2023-02-23T05:50:05;98537.0;;;0.98;84.18
23361;BME280;11852;50.082;18.554;2023-02-23T05:51:13;98532.5;;;1.01;84.18
23361;BME280;11852;50.082;18.554;2023-02-23T05:52:22;98536.5;;;0.94;84.22
23361;BME280;11852;50.082;18.554;2023-02-23T05:53:29;98536.0;;;0.9;84.36
23361;BME280;11852;50.082;18.554;2023-02-23T05:54:46;98533.5;;;0.88;84.32
23361;BME280;11852;50.082;18.554;2023-02-23T05:56:14;98531.01;;;0.94;84.25
23361;BME280;11852;50.082;18.554;2023-02-23T05:57:20;98537.0;;;0.92;84.39
23361;BME280;11852;50.082;18.554;2023-02-23T05:58:28;98535.0;;;0.92;84.43
23361;BME280;11852;50.082;18.554;2023-02-23T05:59:35;98533.0;;;0.95;84.32
23361;BME280;11852;50.082;18.554;2023-02-23T06:00:51;98535.5;;;0.94;84.37
23361;BME280;11852;50.082;18.554;2023-02-23T06:01:59;98536.5;;;0.91;84.4
23361;BME280;11852;50.082;18.554;2023-02-23T06:03:06;98535.0;;;0.94;84.38
23361;BME280;11852;50.082;18.554;2023-02-23T06:04:13;98537.0;;;0.91;84.58
23361;BME280;11852;50.082;18.554;2023-02-23T06:05:20;98538.5;;;0.97;84.46
23361;BME280;11852;50.082;18.554;2023-02-23T06:06:27;98536.5;;;0.98;84.42
23361;BME280;11852;50.082;18.554;2023-02-23T06:07:35;98536.0;;;1.0;84.37
23361;BME280;11852;50.082;18.554;2023-02-23T06:08:43;98538.5;;;0.96;84.44
23361;BME280;11852;50.082;18.554;2023-02-23T06:09:50;98538.0;;;0.95;84.48
23361;BME280;11852;50.082;18.554;2023-02-23T06:10:57;98537.0;;;0.97;84.44
23361;BME280;11852;50.082;18.554;2023-02-23T06:12:05;98536.5;;;0.88;84.68
23361;BME280;11852;50.082;18.554;2023-02-23T06:13:12;98536.5;;;0.9;84.71
23361;BME280;11852;50.082;18.554;2023-02-23T06:14:19;98537.5;;;0.82;84.89
23361;BME280;11852;50.082;18.554;2023-02-23T06:15:27;98539.5;;;0.87;84.74
23361;BME280;11852;50.082;18.554;2023-02-23T06:16:34;98540.0;;;0.9;84.76
23361;BME280;11852;50.082;18.554;2023-02-23T06:17:41;98542.0;;;0.88;84.79
23361;BME280;11852;50.082;18.554;2023-02-23T06:18:49;98541.5;;;0.82;84.84
23361;BME280;11852;50.082;18.554;2023-02-23T06:19:56;98542.51;;;0.85;84.81
23361;BME280;11852;50.082;18.554;2023-02-23T06:21:03;98543.0;;;0.85;84.96
23361;BME280;11852;50.082;18.554;2023-02-23T06:22:09;98543.0;;;0.99;84.65
23361;BME280;11852;50.082;18.554;2023-02-23T06:23:17;98543.0;;;0.92;84.79
23361;BME280;11852;50.082;18.554;2023-02-23T06:24:24;98541.0;;;0.77;85.19
23361;BME280;11852;50.082;18.554;2023-02-23T06:25:31;98543.5;;;0.82;84.87
23361;BME280;11852;50.082;18.554;2023-02-23T06:26:37;98546.5;;;0.83;84.96
23361;BME280;11852;50.082;18.554;2023-02-23T06:27:48;98547.0;;;0.85;84.99
23361;BME280;11852;50.082;18.554;2023-02-23T06:28:55;98545.49;;;0.83;85.01
23361;BME280;11852;50.082;18.554;2023-02-23T06:30:04;98546.0;;;0.82;85.05
23361;BME280;11852;50.082;18.554;2023-02-23T06:31:13;98546.0;;;0.85;84.99
23361;BME280;11852;50.082;18.554;2023-02-23T06:32:20;98547.5;;;0.77;85.29
23361;BME280;11852;50.082;18.554;2023-02-23T06:34:36;98557.0;;;0.88;85.07
23361;BME280;11852;50.082;18.554;2023-02-23T06:35:43;98559.0;;;0.95;84.93
23361;BME280;11852;50.082;18.554;2023-02-23T06:36:50;98556.5;;;1.05;84.74
23361;BME280;11852;50.082;18.554;2023-02-23T06:37:58;98556.0;;;1.05;84.84
23361;BME280;11852;50.082;18.554;2023-02-23T06:39:06;98555.01;;;0.99;84.95
23361;BME280;11852;50.082;18.554;2023-02-23T06:40:13;98555.0;;;1.01;84.79
23361;BME280;11852;50.082;18.554;2023-02-23T06:41:20;98558.5;;;1.08;84.69
23361;BME280;11852;50.082;18.554;2023-02-23T06:43:36;98556.5;;;1.11;84.76
23361;BME280;11852;50.082;18.554;2023-02-23T06:44:42;98558.0;;;1.15;84.74
23361;BME280;11852;50.082;18.554;2023-02-23T06:45:48;98558.0;;;1.15;84.74
23361;BME280;11852;50.082;18.554;2023-02-23T06:46:55;98556.5;;;1.12;84.88
23361;BME280;11852;50.082;18.554;2023-02-23T06:48:02;98558.5;;;1.19;84.81
23361;BME280;11852;50.082;18.554;2023-02-23T06:49:10;98556.5;;;1.23;84.9
23361;BME280;11852;50.082;18.554;2023-02-23T06:50:16;98559.0;;;1.34;84.6
23361;BME280;11852;50.082;18.554;2023-02-23T06:51:24;98555.01;;;1.27;84.87
23361;BME280;11852;50.082;18.554;2023-02-23T06:52:31;98557.0;;;1.34;84.72
23361;BME280;11852;50.082;18.554;2023-02-23T06:53:37;98559.0;;;1.4;84.58
23361;BME280;11852;50.082;18.554;2023-02-23T06:54:44;98559.0;;;1.43;84.6
23361;BME280;11852;50.082;18.554;2023-02-23T06:55:51;98560.0;;;1.33;84.8
23361;BME280;11852;50.082;18.554;2023-02-23T06:56:59;98562.0;;;1.32;84.79
23361;BME280;11852;50.082;18.554;2023-02-23T06:58:06;98559.0;;;1.35;84.71
23361;BME280;11852;50.082;18.554;2023-02-23T06:59:13;98561.5;;;1.39;84.66
23361;BME280;11852;50.082;18.554;2023-02-23T07:00:21;98564.5;;;1.45;84.47
23361;BME280;11852;50.082;18.554;2023-02-23T07:01:28;98564.5;;;1.48;84.57
23361;BME280;11852;50.082;18.554;2023-02-23T07:02:35;98560.5;;;1.57;84.45
23361;BME280;11852;50.082;18.554;2023-02-23T07:03:42;98558.5;;;1.53;84.51
23361;BME280;11852;50.082;18.554;2023-02-23T07:04:51;98559.0;;;1.53;84.5
23361;BME280;11852;50.082;18.554;2023-02-23T07:05:58;98563.0;;;1.55;84.5
23361;BME280;11852;50.082;18.554;2023-02-23T07:07:06;98562.5;;;1.53;84.53
23361;BME280;11852;50.082;18.554;2023-02-23T07:08:13;98562.0;;;1.57;84.31
23361;BME280;11852;50.082;18.554;2023-02-23T07:09:20;98561.5;;;1.68;84.26